Time;durP1;ratioP1;P1;durP2;ratioP2;P2;SDS_P1;SDS_P2;PMS_P1;PMS_P2;Temp;Humidity;BMP_temperature;BMP_pressure;BME280_temperature;BME280_humidity;BME280_pressure;Samples;Min_cycle;Max_cycle;Signal;HPM_P1;HPM_P2
2024/01/12 00:01:19;;;;;;;99.47;58.78;;;-3.10;52.80;;;-5.07;100.00;101975.63;4939238;29;20047;-79
2024/01/12 00:03:46;;;;;;;101.55;61.63;;;-2.30;99.90;;;-5.36;100.00;101954.06;4922389;29;20051;-79
2024/01/12 00:06:13;;;;;;;93.82;55.15;;;-3.90;1.00;;;-5.48;100.00;101903.72;4952555;29;20051;-79
2024/01/12 00:08:40;;;;;;;86.57;51.40;;;-3.70;1.00;;;-5.14;100.00;101941.00;4974583;28;20074;-79
2024/01/12 00:11:09;;;;;;;97.90;54.97;;;-2.70;99.90;;;-5.59;100.00;101897.88;4986674;28;20039;-79
2024/01/12 00:13:37;;;;;;;93.47;52.55;;;-2.40;99.90;;;-5.42;100.00;101952.00;4958322;28;20035;-79
2024/01/12 00:16:08;;;;;;;83.70;48.70;;;-3.40;99.90;;;-5.67;100.00;101944.31;4975352;28;20066;-79
2024/01/12 00:18:35;;;;;;;96.38;52.25;;;-3.70;1.00;;;-5.57;100.00;101972.34;4961752;28;20541;-79
2024/01/12 00:21:03;;;;;;;90.15;53.92;;;-3.60;44.20;;;-5.87;100.00;101913.97;4978281;28;20114;-79
2024/01/12 00:23:30;;;;;;;93.38;54.63;;;-4.20;75.40;;;-6.39;100.00;101829.34;4963530;28;20220;-79
2024/01/12 00:26:00;;;;;;;85.38;50.15;;;-3.00;1.00;;;-5.38;100.00;101983.88;4964705;28;20118;-78
2024/01/12 00:28:27;;;;;;;95.70;51.88;;;-3.30;99.90;;;-5.67;100.00;101957.16;4947982;28;20070;-79
2024/01/12 00:30:55;;;;;;;88.05;48.15;;;-4.00;99.90;;;-5.45;100.00;101990.28;4980813;28;20129;-79
2024/01/12 00:33:25;;;;;;;86.32;48.38;;;-4.00;1.00;;;-5.45;100.00;102001.41;4969659;28;20038;-79
2024/01/12 00:35:52;;;;;;;;;;;-3.70;99.90;;;-5.96;100.00;101912.47;4978338;28;20458;-79
2024/01/12 00:38:19;;;;;;;81.28;46.63;;;-4.60;1.00;;;-5.86;100.00;101948.19;4930170;29;19988;-79
2024/01/12 00:40:46;;;;;;;75.60;43.28;;;-3.60;99.90;;;-5.59;100.00;101981.63;4946615;29;20127;-79
2024/01/12 00:43:13;;;;;;;74.65;42.05;;;-5.60;99.90;;;-5.52;100.00;101999.22;4946457;28;20055;-78
2024/01/12 00:45:44;;;;;;;80.43;44.92;;;-3.40;1.00;;;-5.93;100.00;101918.69;4946807;28;20078;-78
2024/01/12 00:48:11;;;;;;;69.05;42.13;;;-2.60;99.90;;;-5.56;100.00;101990.41;4963492;28;20549;-79
2024/01/12 00:50:38;;;;;;;73.45;44.15;;;-3.30;70.30;;;-6.24;100.00;101861.91;4962550;28;20059;-78
2024/01/12 00:53:06;;;;;;;61.03;38.10;;;-2.80;99.90;;;-5.72;100.00;101965.41;4960574;28;20077;-79
2024/01/12 00:55:33;;;;;;;62.25;36.83;;;-3.20;94.50;;;-5.32;100.00;101995.41;4955127;28;20569;-80
2024/01/12 00:58:00;;;;;;;65.80;39.00;;;-2.40;99.90;;;-5.94;100.00;101910.88;4954997;28;20047;-79
2024/01/12 01:00:27;;;;;;;66.90;39.50;;;-3.60;1.00;;;-5.78;100.00;101961.53;4971434;28;20611;-79
2024/01/12 01:04:23;;;;;;;68.72;38.08;;;-2.50;99.90;;;-5.49;100.00;102014.81;5094777;27;20383;-79
2024/01/12 01:06:50;;;;;;;68.45;35.42;;;-4.20;1.00;;;-5.73;100.00;101999.50;5050901;28;20102;-79
2024/01/12 01:09:17;;;;;;;76.10;40.85;;;-2.90;99.90;;;-6.07;100.00;101968.16;5044323;28;20514;-78
2024/01/12 01:11:44;;;;;;;71.72;38.40;;;-3.40;1.00;;;-5.98;100.00;102008.09;5047611;28;20144;-78
2024/01/12 01:14:11;;;;;;;67.65;35.42;;;-3.10;99.90;;;-5.95;100.00;102032.16;5027413;28;20217;-78
2024/01/12 01:16:38;;;;;;;62.88;34.30;;;-3.60;1.00;;;-6.02;100.00;102015.47;5018214;28;20052;-79
2024/01/12 01:19:05;;;;;;;54.05;33.90;;;-4.00;23.60;;;-6.30;100.00;101963.19;5020011;28;20128;-78
2024/01/12 01:21:32;;;;;;;56.40;32.05;;;-3.60;99.90;;;-6.21;100.00;101974.84;5033643;28;20056;-78
2024/01/12 01:23:59;;;;;;;48.40;30.40;;;-4.00;99.90;;;-5.88;100.00;102007.06;5030263;28;20040;-79
2024/01/12 01:26:27;;;;;;;50.95;30.55;;;-4.00;1.00;;;-5.76;100.00;102009.56;5029935;28;20092;-77
2024/01/12 01:28:55;;;;;;;58.75;31.08;;;-2.70;99.90;;;-5.76;100.00;102011.25;5020789;28;20135;-78
2024/01/12 01:31:22;;;;;;;58.42;32.85;;;-3.60;1.00;;;-5.86;100.00;101986.63;5040164;28;20048;-78
2024/01/12 01:33:49;;;;;;;57.58;30.63;;;-5.40;1.00;;;-5.88;100.00;101967.69;5031731;28;20563;-78
2024/01/12 01:36:17;;;;;;;55.05;30.77;;;-1.70;99.90;;;-6.06;100.00;101950.28;5038618;28;20056;-78
2024/01/12 01:38:44;;;;;;;58.10;34.05;;;-2.90;1.00;;;-5.63;100.00;102006.16;5027841;28;20132;-77
2024/01/12 01:41:11;;;;;;;54.97;32.40;;;-2.30;1.00;;;-6.04;100.00;101992.31;5011434;28;20045;-79
2024/01/12 01:43:38;;;;;;;61.65;34.28;;;-1.60;1.00;;;-6.02;100.00;102023.19;5028343;28;20063;-78
2024/01/12 01:46:05;;;;;;;63.90;31.63;;;-2.60;99.90;;;-6.17;100.00;102034.13;5027544;28;20478;-79
2024/01/12 01:48:32;;;;;;;50.08;29.15;;;-4.00;99.90;;;-6.05;100.00;102048.59;5011174;28;20055;-79
2024/01/12 01:50:59;;;;;;;57.30;34.20;;;-4.40;74.20;;;-6.20;100.00;102007.38;5042032;28;20047;-79
2024/01/12 01:53:27;;;;;;;60.97;34.03;;;-2.30;1.00;;;-6.17;100.00;102057.19;5030084;28;20503;-78
2024/01/12 01:55:54;;;;;;;67.90;34.40;;;-3.50;1.00;;;-6.61;100.00;102007.13;5028251;28;20081;-78
2024/01/12 01:58:21;;;;;;;59.83;33.25;;;-4.70;99.90;;;-6.39;100.00;102048.75;5027600;28;20049;-77
2024/01/12 02:00:50;;;;;;;57.63;34.60;;;;;;;-6.35;100.00;102063.56;5031791;28;20037;-77
2024/01/12 02:03:17;;;;;;;50.95;30.88;;;-3.90;18.00;;;-6.50;100.00;102040.25;5022979;28;20068;-78
2024/01/12 02:05:47;;;;;;;57.58;32.20;;;-3.40;1.00;;;-6.46;100.00;102044.84;5026079;28;20037;-79
2024/01/12 02:08:15;;;;;;;54.97;32.05;;;;;;;-6.24;100.00;102057.53;5019270;28;20049;-79
2024/01/12 02:10:42;;;;;;;54.78;31.08;;;-5.00;1.00;;;-6.45;100.00;102023.59;5031450;28;20102;-79
2024/01/12 02:13:10;;;;;;;61.63;34.15;;;-4.10;99.90;;;-6.58;100.00;102025.25;5028893;28;20052;-79
2024/01/12 02:15:37;;;;;;;63.78;34.42;;;-3.10;26.80;;;-6.38;100.00;102053.09;5032943;28;20040;-79
2024/01/12 02:18:04;;;;;;;54.78;29.55;;;-4.20;99.90;;;-7.07;100.00;101957.69;5007388;28;20038;-79
2024/01/12 02:20:31;;;;;;;51.70;29.42;;;-3.80;99.90;;;-6.68;100.00;102006.56;5007743;28;20117;-80
2024/01/12 02:22:58;;;;;;;57.08;30.67;;;-4.40;99.90;;;-7.28;100.00;101919.50;4990023;28;20037;-79
2024/01/12 02:25:26;;;;;;;50.88;29.27;;;-4.40;41.30;;;-7.02;100.00;101957.25;5038629;28;20047;-79
2024/01/12 02:27:53;;;;;;;50.20;28.85;;;-4.40;1.00;;;-6.76;100.00;102008.56;5000293;28;20053;-79
2024/01/12 02:30:20;;;;;;;50.58;29.20;;;-3.10;75.70;;;-7.25;100.00;101947.88;5018647;28;20045;-78
2024/01/12 02:32:47;;;;;;;52.70;28.42;;;-4.70;1.00;;;-7.17;100.00;101967.22;5022854;28;20547;-77
2024/01/12 02:35:15;;;;;;;54.60;29.90;;;-5.60;1.00;;;-7.15;100.00;101958.00;5026385;28;20054;-78
2024/01/12 02:37:42;;;;;;;50.47;28.83;;;-4.40;99.90;;;-6.85;100.00;102001.97;5010521;28;20060;-79
2024/01/12 02:40:09;;;;;;;50.47;30.02;;;-2.20;99.90;;;-6.52;100.00;102031.59;5015369;28;20103;-78
2024/01/12 02:42:38;;;;;;;44.63;26.87;;;-5.00;99.90;;;-6.60;100.00;101997.75;5013196;28;20076;-77
2024/01/12 02:45:06;;;;;;;53.00;27.20;;;;;;;-6.20;100.00;102036.47;5012702;28;20046;-79
2024/01/12 02:47:33;;;;;;;52.75;30.10;;;-5.00;1.00;;;-6.30;100.00;102034.94;5012192;28;20052;-78
2024/01/12 02:50:00;;;;;;;52.40;29.67;;;-3.70;23.90;;;-6.28;100.00;102017.09;5013260;28;20050;-78
2024/01/12 02:52:27;;;;;;;47.60;27.58;;;-5.00;86.70;;;-6.34;100.00;102004.72;5012720;28;20113;-78
2024/01/12 02:54:54;;;;;;;48.60;28.60;;;-4.30;1.00;;;-6.38;100.00;101989.94;5012557;28;20160;-79
2024/01/12 02:57:21;;;;;;;50.85;29.05;;;-4.40;99.90;;;-6.46;100.00;102006.44;4987542;28;20083;-78
2024/01/12 02:59:48;;;;;;;48.00;28.13;;;-4.90;99.90;;;-6.66;100.00;101985.38;5024049;28;20044;-77
2024/01/12 03:02:15;;;;;;;47.42;27.08;;;-4.60;1.00;;;-6.85;100.00;101986.63;5032107;28;20048;-77
2024/01/12 03:04:42;;;;;;;51.58;29.48;;;-5.20;1.00;;;-6.81;100.00;101991.94;5012405;28;20056;-77
2024/01/12 03:07:09;;;;;;;46.95;30.35;;;-4.40;99.90;;;-6.66;100.00;102036.59;5016412;28;20131;-78
2024/01/12 03:09:38;;;;;;;49.05;27.65;;;-2.00;1.00;;;-7.46;100.00;101921.59;5031363;28;20092;-77
2024/01/12 03:12:05;;;;;;;49.30;27.88;;;;;;;-6.73;100.00;102024.13;5010203;28;20458;-79
2024/01/12 03:14:32;;;;;;;47.58;27.48;;;-4.30;1.00;;;-6.86;100.00;101997.63;5011881;28;20050;-76
2024/01/12 03:17:00;;;;;;;50.22;27.60;;;;;;;-6.48;100.00;102008.88;5012157;28;20057;-78
2024/01/12 03:19:27;;;;;;;47.03;26.50;;;-3.70;1.00;;;-6.50;100.00;102009.53;5011896;28;20088;-77
2024/01/12 03:21:54;;;;;;;43.92;25.33;;;-3.70;83.50;;;-6.99;100.00;101890.03;5009095;28;20053;-77
2024/01/12 03:24:22;;;;;;;52.88;30.08;;;;;;;-6.30;100.00;102014.44;5005052;28;20435;-78
2024/01/12 03:26:49;;;;;;;50.15;29.63;;;-3.70;1.00;;;-7.11;100.00;101925.84;5029924;28;20042;-77
2024/01/12 03:29:18;;;;;;;45.15;26.40;;;;;;;-6.41;100.00;102016.19;5012039;28;20053;-78
2024/01/12 03:31:46;;;;;;;54.97;28.10;;;-4.20;99.90;;;-7.22;100.00;101896.03;5020246;28;20056;-78
2024/01/12 03:34:13;;;;;;;56.05;29.20;;;-4.30;99.90;;;-7.31;100.00;101884.38;5011593;28;20510;-78
2024/01/12 03:36:40;;;;;;;54.33;31.48;;;-4.50;99.90;;;-6.80;100.00;101971.59;5002023;28;20042;-78
2024/01/12 03:39:07;;;;;;;54.03;31.55;;;-5.90;99.90;;;-6.46;100.00;102017.56;5008474;28;20092;-78
2024/01/12 03:41:34;;;;;;;55.05;30.20;;;-5.00;99.90;;;-6.70;100.00;101994.53;4978085;28;20049;-78
2024/01/12 03:44:01;;;;;;;55.97;30.27;;;-4.20;1.00;;;-7.18;100.00;101934.75;5002739;28;20052;-78
2024/01/12 03:46:28;;;;;;;56.13;29.80;;;-4.50;46.40;;;-7.21;100.00;101942.22;4998906;28;20225;-77
2024/01/12 03:48:56;;;;;;;56.72;30.92;;;-5.40;99.90;;;-7.32;100.00;101913.28;5000408;28;20037;-76
2024/01/12 03:51:23;;;;;;;56.17;31.45;;;;;;;-6.58;100.00;102017.56;5016079;28;20049;-76
2024/01/12 03:53:50;;;;;;;53.17;32.25;;;-3.50;99.90;;;-6.74;100.00;102000.19;5007885;28;20042;-77
2024/01/12 03:56:18;;;;;;;56.53;32.05;;;-4.50;1.00;;;-6.72;100.00;101996.06;5029576;28;20045;-77
2024/01/12 03:58:45;;;;;;;49.53;28.98;;;;;;;-6.52;100.00;102027.38;5016497;28;20045;-77
2024/01/12 04:01:12;;;;;;;50.92;29.05;;;-4.80;99.90;;;-7.00;100.00;101959.91;5016331;28;20057;-77
2024/01/12 04:03:41;;;;;;;52.85;30.20;;;-5.10;1.00;;;-6.92;100.00;101978.38;5018005;28;20397;-77
2024/01/12 04:06:09;;;;;;;52.55;27.20;;;-4.40;33.60;;;-6.70;100.00;102004.78;5021200;28;20038;-77
2024/01/12 04:08:37;;;;;;;57.25;32.90;;;;;;;-6.56;100.00;102028.81;5024751;28;20029;-76
2024/01/12 04:12:24;;;;;;;52.78;31.27;;;-3.80;45.40;;;-6.55;100.00;102025.47;5128675;27;20186;-69
2024/01/12 04:14:52;;;;;;;54.72;30.77;;;-3.70;1.00;;;-6.47;100.00;102028.59;5087782;28;20549;-70
2024/01/12 04:17:23;;;;;;;49.50;27.98;;;-4.60;1.00;;;-6.67;100.00;102001.53;5055057;28;20486;-70
2024/01/12 04:19:51;;;;;;;57.60;30.35;;;;;;;-6.65;100.00;102015.31;5100278;28;20083;-70
2024/01/12 04:22:18;;;;;;;54.97;29.63;;;;;;;-6.65;100.00;102017.88;5056040;28;20496;-70
2024/01/12 04:24:46;;;;;;;57.30;32.10;;;-3.20;1.00;;;-6.61;100.00;102024.13;5072477;28;20615;-68
2024/01/12 04:27:13;;;;;;;56.45;31.60;;;-4.80;1.00;;;-6.59;100.00;102020.91;5083722;28;20054;-68
2024/01/12 04:29:44;;;;;;;48.15;29.60;;;-3.70;84.20;;;-6.53;100.00;102029.81;5082690;28;20194;-68
2024/01/12 04:32:14;;;;;;;51.58;29.50;;;-4.00;1.00;;;-6.49;100.00;102026.69;5082347;28;20521;-68
2024/01/12 04:34:41;;;;;;;58.55;34.58;;;-4.50;1.00;;;-6.65;100.00;102017.88;5074001;28;20151;-67
2024/01/12 04:37:09;;;;;;;60.88;34.83;;;-2.80;99.90;;;-6.70;100.00;102030.38;5094600;28;20067;-68
2024/01/12 04:39:36;;;;;;;65.30;38.60;;;-4.30;1.00;;;-6.87;100.00;102038.47;5055904;28;20905;-66
2024/01/12 04:42:04;;;;;;;70.78;36.40;;;-4.20;99.90;;;-6.89;100.00;102029.78;5063685;28;20509;-68
2024/01/12 04:44:31;;;;;;;64.13;36.63;;;-5.10;99.90;;;-6.99;100.00;102023.09;5081995;28;20063;-68
2024/01/12 04:46:59;;;;;;;65.70;35.90;;;-4.30;1.00;;;-7.18;100.00;101998.72;5087991;28;20071;-68
2024/01/12 04:49:29;;;;;;;57.15;33.92;;;;;;;-7.18;100.00;102039.63;5079840;28;20048;-68
2024/01/12 04:51:57;;;;;;;52.55;30.73;;;-4.00;99.90;;;-7.30;100.00;102023.38;5061855;28;20049;-68
2024/01/12 04:54:24;;;;;;;60.75;34.88;;;;;;;-7.25;100.00;102034.84;5084088;28;20044;-66
2024/01/12 04:56:51;;;;;;;53.63;32.53;;;;;;;-7.23;100.00;102037.50;5074799;28;20044;-68
2024/01/12 04:59:19;;;;;;;54.38;32.05;;;-4.70;99.90;;;-7.22;100.00;102032.53;5057775;28;20131;-67
2024/01/12 05:01:46;;;;;;;50.13;28.08;;;-4.70;1.00;;;-7.03;100.00;102042.44;5083228;28;20055;-68
2024/01/12 05:04:14;;;;;;;46.47;26.27;;;-4.50;99.90;;;-6.95;100.00;102034.47;5083097;28;20064;-68
2024/01/12 05:06:42;;;;;;;55.25;27.33;;;-3.90;99.90;;;-6.94;100.00;102039.72;5088933;28;20047;-68
2024/01/12 05:09:12;;;;;;;53.30;27.92;;;;;;;-7.00;100.00;102045.25;5082937;28;20044;-67
2024/01/12 05:11:39;;;;;;;49.65;28.65;;;-5.50;1.00;;;-6.95;100.00;102045.56;5075584;28;20490;-68
2024/01/12 05:14:07;;;;;;;46.70;27.00;;;-4.40;99.90;;;-6.94;100.00;102051.59;5076030;28;20102;-68
2024/01/12 05:16:34;;;;;;;46.40;28.20;;;;;;;-7.00;100.00;102059.69;5088529;28;20616;-68
2024/01/12 05:19:02;;;;;;;47.10;26.30;;;;;;;-7.00;100.00;102060.59;5083628;28;20052;-68
2024/01/12 05:21:29;;;;;;;44.05;26.30;;;-4.70;1.00;;;-7.03;100.00;102039.00;5083333;28;20810;-68
2024/01/12 05:23:56;;;;;;;45.28;26.35;;;-5.00;99.90;;;-6.91;100.00;102045.03;5056022;28;20041;-68
2024/01/12 05:26:23;;;;;;;52.42;27.48;;;-4.80;99.90;;;-6.87;100.00;102038.47;5050505;28;20068;-68
2024/01/12 05:28:51;;;;;;;52.10;28.25;;;-3.60;99.90;;;-6.80;100.00;102035.59;5046265;28;20045;-68
2024/01/12 05:31:18;;;;;;;50.25;28.85;;;-2.50;1.00;;;-6.85;100.00;102044.63;5062557;28;20051;-67
2024/01/12 05:33:45;;;;;;;52.05;28.27;;;-2.90;99.90;;;-6.92;100.00;102043.25;5068889;28;20119;-68
2024/01/12 05:36:13;;;;;;;49.85;28.63;;;-5.10;99.90;;;-7.15;100.00;102039.88;5055193;28;20443;-68
2024/01/12 05:38:40;;;;;;;50.75;29.30;;;-5.50;99.90;;;-7.28;100.00;102044.84;5083970;28;20044;-68
2024/01/12 05:41:07;;;;;;;55.47;29.58;;;-4.30;99.90;;;-7.36;100.00;102043.38;5082758;28;20036;-69
2024/01/12 05:43:34;;;;;;;53.67;28.83;;;-5.60;1.00;;;-7.46;100.00;102032.44;5059186;28;20063;-69
2024/01/12 05:46:01;;;;;;;50.92;27.75;;;-5.10;99.90;;;-7.44;100.00;102053.03;5064385;28;20074;-69
2024/01/12 05:48:29;;;;;;;48.22;26.08;;;;;;;-7.47;100.00;102053.66;5050906;28;20046;-69
2024/01/12 05:50:57;;;;;;;44.80;25.95;;;;;;;-7.41;100.00;102056.72;5059337;28;20490;-69
2024/01/12 05:53:25;;;;;;;47.13;27.63;;;-5.30;1.00;;;-7.30;100.00;102052.41;5054724;28;20319;-67
2024/01/12 05:55:54;;;;;;;44.47;22.95;;;;;;;-7.31;100.00;102053.19;5075435;28;20052;-69
2024/01/12 05:58:22;;;;;;;48.67;28.90;;;;;;;-7.29;100.00;102053.28;5043949;28;20047;-69
2024/01/12 06:00:50;;;;;;;57.88;30.48;;;-4.70;99.90;;;-7.33;100.00;102053.84;5076755;28;20040;-68
2024/01/12 06:03:17;;;;;;;46.55;29.10;;;;;;;-7.33;100.00;102044.50;5063465;28;20561;-69
2024/01/12 06:05:48;;;;;;;63.60;34.70;;;-4.10;1.00;;;-7.26;100.00;102028.84;5077325;28;20048;-69
2024/01/12 06:08:16;;;;;;;57.17;31.05;;;;;;;-7.16;100.00;102047.44;5071514;28;20052;-70
2024/01/12 06:10:44;;;;;;;64.05;34.20;;;-4.90;99.90;;;-7.12;100.00;102042.66;5062557;28;20447;-69
2024/01/12 06:13:11;;;;;;;52.13;31.20;;;-5.30;99.90;;;-7.10;100.00;102039.31;5054851;28;20137;-69
2024/01/12 06:15:39;;;;;;;51.10;31.48;;;-5.80;6.40;;;-7.21;100.00;102041.06;5042173;28;20040;-69
2024/01/12 06:18:07;;;;;;;55.92;29.58;;;;;;;-7.24;100.00;102054.53;5072552;28;20041;-69
2024/01/12 06:20:34;;;;;;;56.10;32.35;;;-4.70;99.90;;;-7.31;100.00;102047.16;5051543;28;20052;-68
2024/01/12 06:23:02;;;;;;;57.92;32.70;;;-4.70;99.90;;;-7.35;100.00;102043.47;5064285;28;20040;-69
2024/01/12 06:25:31;;;;;;;55.47;31.75;;;-5.50;1.00;;;-7.29;100.00;102040.50;5059128;28;20053;-69
2024/01/12 06:27:59;;;;;;;53.28;29.35;;;;;;;-7.20;100.00;102055.63;5072768;28;20074;-71
2024/01/12 06:30:26;;;;;;;51.88;30.08;;;-5.50;11.40;;;-7.27;100.00;102051.72;5064800;28;20049;-70
2024/01/12 06:32:55;;;;;;;55.50;32.00;;;-4.90;99.90;;;-7.48;100.00;102038.22;5084104;28;20561;-70
2024/01/12 06:35:22;;;;;;;58.22;29.90;;;;;;;-7.43;100.00;102050.56;5067414;28;20041;-71
2024/01/12 06:37:50;;;;;;;59.97;34.10;;;-3.90;99.90;;;-7.38;100.00;102042.38;5055296;28;20048;-70
2024/01/12 06:40:17;;;;;;;55.70;32.28;;;;;;;-7.28;100.00;102045.75;5043899;28;20063;-70
2024/01/12 06:42:47;;;;;;;53.63;30.85;;;-5.20;99.90;;;-7.17;100.00;102038.88;5068281;28;20102;-70
2024/01/12 06:45:15;;;;;;;63.28;34.83;;;-3.40;14.40;;;-7.10;100.00;102042.78;5046361;28;20329;-70
2024/01/12 06:47:43;;;;;;;53.80;31.05;;;-4.80;1.00;;;-7.05;100.00;102036.31;5051050;28;20071;-69
2024/01/12 06:50:11;;;;;;;61.97;33.95;;;-4.30;99.90;;;-6.95;100.00;102037.91;5055956;28;20045;-69
2024/01/12 06:52:38;;;;;;;64.63;36.53;;;-3.90;1.00;;;-6.91;100.00;102031.34;5063725;28;20153;-70
2024/01/12 06:55:05;;;;;;;61.33;34.72;;;-5.60;1.00;;;-6.94;100.00;102038.81;5080398;28;20136;-69
2024/01/12 06:57:33;;;;;;;58.53;34.00;;;-8.20;1.00;;;-7.04;100.00;102039.78;5051128;28;20036;-70
2024/01/12 07:00:00;;;;;;;61.30;32.55;;;-5.30;99.90;;;-7.19;100.00;102042.97;5050190;28;20048;-70
2024/01/12 07:02:29;;;;;;;61.45;35.92;;;;;;;-7.20;100.00;102053.09;5051581;28;20044;-70
2024/01/12 07:04:59;;;;;;;64.05;37.97;;;-3.60;99.90;;;-7.45;100.00;102051.25;5083057;28;20047;-72
2024/01/12 07:07:26;;;;;;;66.05;32.33;;;-4.90;99.90;;;-7.44;100.00;102058.13;5083346;28;20048;-73
2024/01/12 07:09:53;;;;;;;55.40;31.23;;;-6.20;99.90;;;-7.32;100.00;102076.97;5071136;28;20060;-70
2024/01/12 07:12:20;;;;;;;54.67;31.45;;;-4.10;99.90;;;-7.36;100.00;102076.63;5060773;28;20147;-71
2024/01/12 07:14:51;;;;;;;52.33;29.48;;;-4.50;99.90;;;-7.30;100.00;102077.06;5079717;28;20567;-70
2024/01/12 07:17:18;;;;;;;60.53;32.70;;;-6.00;1.00;;;-7.23;100.00;102079.34;5071396;28;20580;-69
2024/01/12 07:19:46;;;;;;;51.13;28.40;;;-5.00;1.00;;;-7.20;100.00;102084.69;5064930;28;20648;-69
2024/01/12 07:22:13;;;;;;;55.28;29.25;;;-4.80;1.00;;;-7.21;100.00;102082.00;5049892;28;20040;-69
2024/01/12 07:24:40;;;;;;;50.95;30.98;;;-4.90;10.60;;;-7.21;100.00;102092.22;5053954;28;20047;-69
2024/01/12 07:27:08;;;;;;;47.83;29.05;;;;;;;-7.24;100.00;102099.69;5058371;28;20111;-69
2024/01/12 07:29:35;;;;;;;55.75;32.13;;;-5.30;1.00;;;-7.28;100.00;102107.13;5048596;28;20047;-69
2024/01/12 07:32:03;;;;;;;54.70;32.15;;;-4.90;1.00;;;-7.25;100.00;102096.25;5067879;28;20775;-70
2024/01/12 07:34:31;;;;;;;51.90;30.77;;;-5.40;99.90;;;-7.17;100.00;102107.94;5033548;28;20040;-69
2024/01/12 07:36:58;;;;;;;53.70;29.73;;;-3.00;22.10;;;-7.24;100.00;102085.25;5083524;28;20036;-70
2024/01/12 07:39:27;;;;;;;49.08;28.30;;;-4.90;1.00;;;-7.14;100.00;102104.75;5056315;28;20096;-69
2024/01/12 07:41:55;;;;;;;53.58;29.80;;;-5.20;61.00;;;-7.14;100.00;102105.59;5058512;28;20512;-69
2024/01/12 07:44:22;;;;;;;52.72;31.30;;;-5.10;1.00;;;-7.34;100.00;102108.31;5065320;28;20482;-69
2024/01/12 07:46:50;;;;;;;47.85;29.70;;;-3.90;99.90;;;-7.60;100.00;102105.53;5056341;28;20052;-69
2024/01/12 07:49:17;;;;;;;49.85;30.38;;;-4.10;99.90;;;-7.50;100.00;102121.56;5046733;28;20056;-70
2024/01/12 07:51:45;;;;;;;50.67;28.75;;;-6.00;1.00;;;-7.42;100.00;102107.72;5054851;28;20040;-69
2024/01/12 07:54:12;;;;;;;55.55;28.90;;;-5.60;99.90;;;-7.34;100.00;102119.44;5041708;28;20044;-70
2024/01/12 07:56:39;;;;;;;55.25;30.88;;;-4.30;1.00;;;-7.48;100.00;102092.81;5066193;28;20128;-69
2024/01/12 07:59:09;;;;;;;49.75;29.08;;;-4.60;1.00;;;-7.40;100.00;102126.63;5049675;28;20102;-69
2024/01/12 08:01:40;;;;;;;52.53;30.13;;;;;;;-7.40;100.00;102126.63;5046245;28;20054;-69
2024/01/12 08:04:09;;;;;;;55.42;30.60;;;;;;;-7.35;100.00;102111.66;5078525;28;20052;-69
2024/01/12 08:06:39;;;;;;;58.55;32.45;;;;;;;-7.36;100.00;102120.97;5034322;28;20060;-70
2024/01/12 08:09:06;;;;;;;62.25;37.70;;;-5.10;99.90;;;-7.38;100.00;102129.34;5065750;28;20048;-68
2024/01/12 08:11:33;;;;;;;63.67;36.83;;;-5.20;99.90;;;-7.36;100.00;102128.66;5064835;28;20127;-69
2024/01/12 08:14:07;;;;;;;58.72;34.08;;;;;;;-7.33;100.00;102130.56;5059652;28;20040;-67
2024/01/12 08:16:35;;;;;;;61.42;34.35;;;;;;;-7.14;100.00;102133.75;5035625;28;20143;-69
2024/01/12 08:19:02;;;;;;;56.05;33.70;;;-5.30;1.00;;;-7.00;100.00;102132.28;5062130;28;20092;-72
2024/01/12 08:21:29;;;;;;;59.53;31.75;;;-5.10;1.00;;;-6.87;100.00;102148.53;5076547;28;20675;-72
2024/01/12 08:24:15;;;;;;;62.03;32.85;;;-4.80;1.00;;;-6.82;100.00;102142.09;5050178;28;20145;-72
2024/01/12 08:26:46;;;;;;;58.60;34.22;;;-4.30;7.50;;;-6.74;100.00;102140.13;5030879;28;20049;-72
2024/01/12 08:29:14;;;;;;;68.32;36.00;;;-4.60;64.60;;;-6.62;100.00;102148.72;5077594;28;20108;-72
2024/01/12 08:31:42;;;;;;;63.83;35.88;;;-2.50;75.90;;;-6.52;100.00;102142.63;5064901;28;20102;-71
2024/01/12 08:34:09;;;;;;;62.88;33.42;;;-4.00;99.90;;;-6.47;100.00;102140.41;5077858;28;20694;-71
2024/01/12 08:36:37;;;;;;;61.70;32.97;;;-2.10;99.90;;;-6.32;100.00;102148.31;5041071;28;20050;-72
2024/01/12 08:39:07;;;;;;;54.55;30.75;;;-3.80;1.00;;;-6.23;100.00;102155.78;5059190;28;20032;-72
2024/01/12 08:41:36;;;;;;;52.40;29.45;;;-4.20;1.00;;;-6.14;100.00;102156.47;5040311;28;20076;-71
2024/01/12 08:44:03;;;;;;;53.22;31.80;;;-3.70;68.40;;;-6.09;100.00;102157.69;5079187;28;20559;-72
2024/01/12 08:46:31;;;;;;;51.00;31.13;;;-4.30;1.00;;;-6.05;100.00;102154.56;5054856;28;20052;-72
2024/01/12 08:48:59;;;;;;;57.03;30.42;;;-4.90;1.00;;;-5.96;100.00;102150.84;5070176;28;20733;-71
2024/01/12 08:51:26;;;;;;;51.13;29.40;;;-5.00;99.90;;;-5.91;100.00;102154.63;5053859;28;20149;-72
2024/01/12 08:53:53;;;;;;;50.38;29.17;;;-4.10;99.90;;;-5.86;100.00;102154.19;5056418;28;20037;-71
2024/01/12 08:56:21;;;;;;;53.10;30.77;;;-2.60;99.90;;;-5.84;100.00;102157.75;5083848;28;20049;-71
2024/01/12 08:58:48;;;;;;;49.22;29.05;;;-3.70;99.90;;;-5.75;100.00;102157.50;5072236;28;20040;-71
2024/01/12 09:01:16;;;;;;;52.20;28.80;;;-3.20;99.90;;;-5.66;100.00;102158.97;5035775;28;20049;-72
2024/01/12 09:03:46;;;;;;;47.03;29.63;;;-3.20;99.90;;;-5.73;100.00;102132.88;5057875;28;20053;-72
2024/01/12 09:06:18;;;;;;;54.20;29.80;;;-3.40;1.00;;;-5.53;100.00;102156.50;5078264;28;20043;-70
2024/01/12 09:08:47;;;;;;;49.92;28.92;;;-3.00;99.90;;;-5.39;100.00;102162.56;5069447;28;20052;-71
2024/01/12 09:11:17;;;;;;;45.90;27.95;;;-3.70;99.90;;;-5.35;100.00;102153.44;5071733;28;20063;-72
2024/01/12 09:13:45;;;;;;;47.95;30.20;;;-3.80;99.90;;;-5.25;100.00;102143.00;5043561;28;20044;-71
2024/01/12 09:16:13;;;;;;;43.13;25.17;;;-3.00;99.90;;;-5.17;100.00;102148.66;5063189;28;20040;-72
2024/01/12 09:18:43;;;;;;;46.42;28.38;;;-3.80;1.00;;;-5.08;100.00;102150.97;5049672;28;20056;-71
2024/01/12 09:21:14;;;;;;;;;;;-3.80;99.90;;;-5.01;100.00;102158.31;5070133;28;20175;-72
2024/01/12 09:23:43;;;;;;;41.03;25.25;;;-3.80;99.90;;;-4.90;100.00;102159.03;5037342;28;19921;-72
2024/01/12 09:26:11;;;;;;;41.10;24.55;;;-4.20;99.90;;;-4.82;100.00;102164.69;5034061;28;20128;-71
2024/01/12 09:28:39;;;;;;;42.00;23.60;;;-3.00;1.00;;;-4.79;100.00;102154.63;5047941;28;20064;-71
2024/01/12 09:31:06;;;;;;;41.08;25.35;;;-3.30;99.90;;;-4.71;100.00;102156.94;5081508;28;20036;-72
2024/01/12 09:33:34;;;;;;;38.42;22.98;;;-3.50;2.30;;;-4.57;100.00;102159.53;5061689;28;20032;-72
2024/01/12 09:36:03;;;;;;;39.45;23.20;;;-3.10;99.90;;;-4.50;100.00;102148.00;5058737;28;20040;-72
2024/01/12 09:38:30;;;;;;;39.42;24.38;;;-2.80;1.00;;;-4.36;100.00;102151.50;5075190;28;20040;-72
2024/01/12 09:41:01;;;;;;;37.03;23.70;;;-1.70;1.00;;;-4.16;100.00;102152.75;5057040;28;20043;-72
2024/01/12 09:43:29;;;;;;;41.85;26.48;;;-3.00;1.00;;;-4.06;100.00;102139.72;5070945;28;20100;-71
2024/01/12 09:46:04;;;;;;;43.53;25.15;;;-2.70;1.00;;;-3.90;100.00;102140.72;5060564;28;20140;-72
2024/01/12 09:48:33;;;;;;;33.50;22.20;;;-2.80;1.00;;;-3.76;100.00;102131.28;5072323;28;20055;-72
2024/01/12 09:51:03;;;;;;;43.10;20.95;;;-1.80;1.00;;;-3.54;100.00;102140.38;5077328;28;20066;-71
2024/01/12 09:53:31;;;;;;;32.80;18.15;;;-2.60;1.00;;;-3.32;100.00;102152.88;5082802;28;20049;-70
2024/01/12 09:55:59;;;;;;;29.70;18.75;;;-2.20;1.00;;;-3.23;100.00;102149.97;5061541;28;20048;-70
2024/01/12 09:58:40;;;;;;;29.48;18.55;;;-1.60;1.00;;;-3.16;100.00;102136.66;5082428;28;20041;-73
2024/01/12 10:01:11;;;;;;;25.20;17.63;;;-1.60;1.00;;;-3.04;100.00;102149.44;5065065;28;20049;-72
2024/01/12 10:03:41;;;;;;;27.98;18.25;;;-0.80;1.00;;;-3.10;100.00;102126.75;5050523;28;20365;-72
2024/01/12 10:06:09;;;;;;;29.55;18.48;;;-1.10;1.00;;;-2.87;100.00;102153.00;5033437;28;20118;-72
2024/01/12 10:08:37;;;;;;;29.77;16.98;;;-0.40;1.00;;;-2.87;100.00;102156.47;5048312;28;20063;-72
2024/01/12 10:11:06;;;;;;;27.45;17.13;;;-1.00;1.00;;;-2.76;100.00;102151.97;5073212;28;20448;-72